Time;durP1;ratioP1;P1;durP2;ratioP2;P2;SDS_P1;SDS_P2;PMS_P1;PMS_P2;Temp;Humidity;BMP_temperature;BMP_pressure;BME280_temperature;BME280_humidity;BME280_pressure;Samples;Min_cycle;Max_cycle;Signal;HPM_P1;HPM_P2
2021/11/01 00:01:51;;;;;;;6.63;1.80;;;;;;;;;;5035641;28;20469;-87
2021/11/01 00:04:16;;;;;;;15.30;2.75;;;;;;;;;;5034728;28;20029;-87
2021/11/01 00:06:42;;;;;;;8.32;1.35;;;;;;;;;;5033650;28;20033;-87
2021/11/01 00:09:07;;;;;;;5.10;1.52;;;;;;;;;;5034270;28;20029;-87
2021/11/01 00:11:32;;;;;;;8.60;1.30;;;;;;;;;;5034431;28;20026;-87
2021/11/01 00:13:57;;;;;;;14.23;1.20;;;;;;;;;;5034183;28;20029;-87
2021/11/01 00:16:23;;;;;;;5.47;1.48;;;;;;;;;;5035516;28;20029;-87
2021/11/01 00:18:48;;;;;;;8.90;1.35;;;;;;;;;;5033869;28;20033;-87
2021/11/01 00:21:14;;;;;;;5.40;0.98;;;;;;;;;;5034229;28;20674;-87
2021/11/01 00:23:40;;;;;;;9.65;1.30;;;;;;;;;;5034065;28;20021;-87
2021/11/01 00:26:05;;;;;;;7.82;1.15;;;;;;;;;;5033671;28;20799;-87
2021/11/01 00:28:30;;;;;;;7.25;1.20;;;;;;;;;;5034167;28;20013;-87
2021/11/01 00:30:58;;;;;;;7.63;1.40;;;;;;;;;;5033469;28;20408;-87
2021/11/01 00:33:24;;;;;;;11.05;1.13;;;;;;;;;;5034052;28;20094;-87
2021/11/01 00:35:50;;;;;;;11.00;1.20;;;;;;;;;;5033979;28;20465;-87
2021/11/01 00:38:15;;;;;;;5.25;1.35;;;;;;;;;;5033108;28;20440;-87
2021/11/01 00:40:41;;;;;;;3.15;0.88;;;;;;;;;;5034068;28;20025;-87
2021/11/01 00:43:06;;;;;;;11.60;1.15;;;;;;;;;;5033618;28;20029;-87
2021/11/01 00:45:31;;;;;;;11.63;1.08;;;;;;;;;;5033657;28;20036;-87
2021/11/01 00:47:57;;;;;;;9.43;1.80;;;;;;;;;;5033582;28;20018;-87
2021/11/01 00:50:22;;;;;;;9.40;1.30;;;;;;;;;;5066890;28;20033;-87
2021/11/01 00:52:47;;;;;;;6.70;1.58;;;;;;;;;;5033799;28;20034;-87
2021/11/01 00:55:21;;;;;;;11.40;1.60;;;;;;;;;;5033207;28;20036;-87
2021/11/01 00:57:46;;;;;;;6.22;1.17;;;;;;;;;;5033503;28;20021;-87
2021/11/01 01:00:12;;;;;;;5.95;1.15;;;;;;;;;;5033326;28;20025;-87
2021/11/01 01:02:37;;;;;;;8.98;1.00;;;;;;;;;;5033685;28;20104;-87
2021/11/01 01:05:04;;;;;;;12.05;1.27;;;;;;;;;;5033213;28;20534;-87
2021/11/01 01:07:30;;;;;;;3.97;0.85;;;;;;;;;;5066564;28;20125;-87
2021/11/01 01:09:55;;;;;;;4.88;1.13;;;;;;;;;;5033500;28;20108;-87
2021/11/01 01:12:21;;;;;;;15.57;1.48;;;;;;;;;;5032990;28;20128;-87
2021/11/01 01:14:52;;;;;;;9.20;1.35;;;;;;;;;;5033289;28;20468;-87
2021/11/01 01:17:20;;;;;;;6.00;1.10;;;;;;;;;;5033048;28;20389;-87
2021/11/01 01:19:52;;;;;;;5.93;1.10;;;;;;;;;;5033335;28;20029;-87
2021/11/01 01:22:29;;;;;;;8.50;1.50;;;;;;;;;;5026971;28;20036;-87
2021/11/01 01:24:58;;;;;;;8.07;1.48;;;;;;;;;;5032872;28;20021;-87
2021/11/01 01:27:23;;;;;;;4.47;1.20;;;;;;;;;;5032798;28;20036;-87
2021/11/01 01:29:50;;;;;;;2.22;0.82;;;;;;;;;;5032817;28;20017;-87
2021/11/01 01:32:15;;;;;;;3.13;0.85;;;;;;;;;;5032777;28;20021;-87
2021/11/01 01:34:41;;;;;;;11.73;1.35;;;;;;;;;;5032632;28;20021;-87
2021/11/01 01:37:06;;;;;;;12.68;0.90;;;;;;;;;;5032842;28;20022;-87
2021/11/01 01:39:31;;;;;;;7.28;1.00;;;;;;;;;;5065928;28;20499;-88
2021/11/01 01:41:56;;;;;;;8.35;1.20;;;;;;;;;;5032801;28;20014;-87
2021/11/01 01:44:21;;;;;;;9.05;1.92;;;;;;;;;;5032704;28;20025;-87
2021/11/01 01:46:47;;;;;;;6.47;1.10;;;;;;;;;;5065562;28;20036;-87
2021/11/01 01:49:12;;;;;;;3.25;1.00;;;;;;;;;;5032424;28;20022;-87
2021/11/01 01:51:38;;;;;;;6.47;1.38;;;;;;;;;;5065021;28;20477;-87
2021/11/01 01:54:03;;;;;;;7.03;1.30;;;;;;;;;;5032356;28;20100;-87
2021/11/01 01:56:29;;;;;;;5.70;1.00;;;;;;;;;;5033513;28;20415;-87
2021/11/01 01:58:59;;;;;;;10.70;0.90;;;;;;;;;;5065300;28;20021;-87
2021/11/01 02:01:25;;;;;;;6.40;1.10;;;;;;;;;;5032278;28;20120;-87
2021/11/01 02:03:50;;;;;;;6.85;1.02;;;;;;;;;;5033195;28;20060;-87
2021/11/01 02:06:35;;;;;;;8.80;1.10;;;;;;;;;;5031896;28;20045;-87
2021/11/01 02:09:10;;;;;;;6.68;0.90;;;;;;;;;;5048738;28;20538;-87
2021/11/01 02:11:48;;;;;;;5.30;1.05;;;;;;;;;;5032059;28;20040;-87
2021/11/01 02:14:16;;;;;;;8.07;1.60;;;;;;;;;;5065416;28;20385;-87
2021/11/01 02:16:42;;;;;;;9.32;1.13;;;;;;;;;;5065036;28;20119;-87
2021/11/01 02:19:10;;;;;;;9.75;1.10;;;;;;;;;;5065227;28;20061;-87
2021/11/01 02:21:49;;;;;;;7.43;1.52;;;;;;;;;;5031978;28;20027;-87
2021/11/01 02:24:23;;;;;;;13.57;1.15;;;;;;;;;;5065458;28;20021;-87
2021/11/01 02:26:48;;;;;;;7.10;1.20;;;;;;;;;;5064536;28;20037;-87
2021/11/01 02:29:14;;;;;;;7.68;1.20;;;;;;;;;;5033186;28;20059;-87
2021/11/01 02:31:39;;;;;;;11.45;1.48;;;;;;;;;;5032808;28;20033;-87
2021/11/01 02:34:06;;;;;;;14.73;1.70;;;;;;;;;;5031664;28;20025;-87
2021/11/01 02:36:32;;;;;;;9.27;1.30;;;;;;;;;;5031722;28;20018;-87
2021/11/01 02:38:58;;;;;;;12.75;1.55;;;;;;;;;;5031374;28;20380;-87
2021/11/01 02:41:24;;;;;;;5.90;1.10;;;;;;;;;;5031801;28;20045;-87
2021/11/01 02:43:54;;;;;;;3.63;0.82;;;;;;;;;;5031639;28;20018;-87
2021/11/01 02:46:20;;;;;;;10.98;1.20;;;;;;;;;;5064675;28;20055;-87
2021/11/01 02:48:46;;;;;;;9.35;1.35;;;;;;;;;;5031377;28;20017;-87
2021/11/01 02:51:12;;;;;;;9.18;1.10;;;;;;;;;;5031340;28;20021;-87
2021/11/01 02:53:40;;;;;;;11.63;1.35;;;;;;;;;;5031759;28;20018;-87
2021/11/01 02:56:08;;;;;;;11.30;1.10;;;;;;;;;;5028996;28;20432;-87
2021/11/01 02:58:33;;;;;;;11.68;1.38;;;;;;;;;;5031465;28;20032;-87
2021/11/01 03:00:59;;;;;;;11.70;1.42;;;;;;;;;;5031138;28;20381;-87
2021/11/01 03:03:24;;;;;;;9.88;1.40;;;;;;;;;;5064429;28;20037;-87
2021/11/01 03:05:50;;;;;;;5.25;1.20;;;;;;;;;;5032487;28;20025;-87
2021/11/01 03:08:15;;;;;;;7.07;1.50;;;;;;;;;;5064351;28;20077;-87
2021/11/01 03:10:41;;;;;;;6.82;1.08;;;;;;;;;;5031409;28;20054;-87
2021/11/01 03:13:07;;;;;;;5.47;1.13;;;;;;;;;;5064771;28;20416;-87
2021/11/01 03:15:33;;;;;;;7.50;1.38;;;;;;;;;;5031180;28;20079;-87
2021/11/01 03:18:01;;;;;;;3.72;0.82;;;;;;;;;;5031034;28;20511;-87
2021/11/01 03:20:30;;;;;;;8.55;1.20;;;;;;;;;;5064664;28;20056;-87
2021/11/01 03:22:57;;;;;;;11.68;1.55;;;;;;;;;;5031317;28;20116;-87
2021/11/01 03:25:29;;;;;;;10.68;1.33;;;;;;;;;;5032133;28;20025;-87
2021/11/01 03:27:55;;;;;;;9.20;1.35;;;;;;;;;;5030833;28;20025;-87
2021/11/01 03:30:21;;;;;;;12.35;1.50;;;;;;;;;;5032172;28;20100;-87
2021/11/01 03:32:48;;;;;;;8.05;2.13;;;;;;;;;;5032363;28;20425;-87
2021/11/01 03:35:14;;;;;;;7.28;1.38;;;;;;;;;;5030900;28;20342;-87
2021/11/01 03:37:40;;;;;;;8.98;1.35;;;;;;;;;;5064280;28;20032;-87
2021/11/01 03:40:06;;;;;;;10.23;1.30;;;;;;;;;;5031018;28;20055;-87
2021/11/01 03:42:32;;;;;;;5.53;1.13;;;;;;;;;;5063960;28;20021;-87
2021/11/01 03:45:04;;;;;;;4.70;1.40;;;;;;;;;;5030949;28;20028;-88
2021/11/01 03:47:35;;;;;;;11.23;1.20;;;;;;;;;;5030507;28;20151;-87
2021/11/01 03:50:06;;;;;;;11.98;1.40;;;;;;;;;;5032718;28;20026;-87
2021/11/01 03:52:36;;;;;;;9.60;1.20;;;;;;;;;;5030847;28;20013;-87
2021/11/01 03:55:02;;;;;;;8.25;1.25;;;;;;;;;;5030790;28;20418;-87
2021/11/01 03:57:27;;;;;;;8.68;1.55;;;;;;;;;;5030564;28;20439;-87
2021/11/01 03:59:53;;;;;;;7.88;1.10;;;;;;;;;;5030550;28;20021;-87
2021/11/01 04:02:21;;;;;;;11.05;1.95;;;;;;;;;;5030752;28;20457;-87
2021/11/01 04:04:48;;;;;;;14.40;1.50;;;;;;;;;;5064024;28;20428;-87
2021/11/01 04:07:13;;;;;;;15.77;1.92;;;;;;;;;;5030639;28;20060;-87
2021/11/01 04:09:39;;;;;;;8.30;1.33;;;;;;;;;;5030469;28;20480;-87
2021/11/01 04:12:05;;;;;;;13.50;1.08;;;;;;;;;;5030746;28;20024;-87
2021/11/01 04:14:37;;;;;;;9.18;1.00;;;;;;;;;;5033249;28;20538;-87
2021/11/01 04:17:09;;;;;;;9.38;1.30;;;;;;;;;;5034442;28;20358;-87
2021/11/01 04:19:46;;;;;;;12.38;1.27;;;;;;;;;;5034085;28;20070;-87
2021/11/01 04:22:11;;;;;;;4.78;1.08;;;;;;;;;;5034332;28;20396;-87
2021/11/01 04:24:36;;;;;;;7.57;1.00;;;;;;;;;;5034085;28;20100;-87
2021/11/01 04:27:02;;;;;;;9.80;1.63;;;;;;;;;;5067377;28;20500;-87
2021/11/01 04:29:31;;;;;;;6.30;1.20;;;;;;;;;;5033964;28;20022;-87
2021/11/01 04:32:00;;;;;;;7.28;1.10;;;;;;;;;;5067199;28;20017;-86
2021/11/01 04:34:35;;;;;;;4.47;0.98;;;;;;;;;;5034352;28;20148;-87
2021/11/01 04:37:00;;;;;;;4.45;0.85;;;;;;;;;;5033539;28;20025;-87
2021/11/01 04:55:43;;;;;;;10.48;1.63;;;;;;;;;;4954209;29;20027;-87
2021/11/01 04:58:09;;;;;;;10.40;1.17;;;;;;;;;;5019392;28;20051;-87
2021/11/01 05:00:34;;;;;;;8.77;1.17;;;;;;;;;;5033521;28;20017;-87
2021/11/01 05:03:14;;;;;;;5.65;0.93;;;;;;;;;;5066729;28;20049;-87
2021/11/01 05:05:40;;;;;;;11.93;1.92;;;;;;;;;;5061568;28;20061;-87
2021/11/01 05:08:05;;;;;;;15.13;1.02;;;;;;;;;;5066736;28;20033;-87
2021/11/01 05:10:35;;;;;;;8.43;1.30;;;;;;;;;;5066707;28;20017;-87
2021/11/01 05:13:10;;;;;;;11.57;1.30;;;;;;;;;;5033028;28;20028;-87
2021/11/01 05:15:43;;;;;;;8.52;1.30;;;;;;;;;;5066557;28;20017;-87
2021/11/01 05:18:20;;;;;;;;;;;;;;;;;;5033477;28;20021;-88
2021/11/01 05:21:09;;;;;;;7.30;1.20;;;;;;;;;;5043326;28;19909;-87
2021/11/01 05:23:35;;;;;;;8.07;1.67;;;;;;;;;;5032999;28;20025;-87
2021/11/01 05:28:43;;;;;;;12.10;1.30;;;;;;;;;;5034640;28;20026;-87
2021/11/01 05:31:20;;;;;;;7.72;1.23;;;;;;;;;;5032734;28;20087;-87
2021/11/01 05:33:52;;;;;;;12.20;1.02;;;;;;;;;;5031542;28;20013;-87
2021/11/01 05:36:18;;;;;;;8.77;1.57;;;;;;;;;;5033167;28;21079;-87
2021/11/01 05:38:43;;;;;;;12.63;1.65;;;;;;;;;;5032767;28;20045;-87
2021/11/01 05:41:08;;;;;;;8.13;1.15;;;;;;;;;;5033020;28;20430;-87
2021/11/01 05:43:34;;;;;;;10.30;1.00;;;;;;;;;;5032433;28;20438;-87
2021/11/01 05:45:59;;;;;;;8.02;0.85;;;;;;;;;;5065884;28;20026;-88
2021/11/01 05:48:24;;;;;;;12.20;1.77;;;;;;;;;;5032466;28;20017;-87
2021/11/01 05:50:50;;;;;;;7.90;0.73;;;;;;;;;;5032452;28;20052;-87
2021/11/01 05:53:15;;;;;;;9.68;1.00;;;;;;;;;;5033950;28;20052;-87
2021/11/01 05:58:24;;;;;;;10.85;1.10;;;;;;;;;;5033907;28;20029;-87
2021/11/01 06:03:41;;;;;;;10.43;1.00;;;;;;;;;;5033464;28;20393;-87
2021/11/01 06:13:49;;;;;;;11.65;1.45;;;;;;;;;;5033252;28;20064;-87
2021/11/01 06:16:14;;;;;;;9.40;0.80;;;;;;;;;;5032920;28;20075;-87
2021/11/01 06:18:41;;;;;;;15.43;1.35;;;;;;;;;;5032251;28;20053;-87
2021/11/01 06:21:07;;;;;;;8.93;1.15;;;;;;;;;;5031934;28;20053;-87
2021/11/01 06:23:34;;;;;;;7.97;1.13;;;;;;;;;;5033069;28;20501;-87
2021/11/01 06:26:00;;;;;;;10.55;1.00;;;;;;;;;;5031419;28;20031;-87
2021/11/01 06:28:25;;;;;;;14.95;1.70;;;;;;;;;;5065315;28;20457;-87
2021/11/01 06:30:58;;;;;;;6.38;1.02;;;;;;;;;;5031209;28;20012;-87
2021/11/01 06:52:53;;;;;;;14.75;1.58;;;;;;;;;;5033344;28;20361;-85
2021/11/01 08:25:22;;;;;;;1.83;0.50;;;;;;;;;;5035906;28;20034;-87
2021/11/01 08:45:12;;;;;;;2.80;0.70;;;;;;;;;;5034966;28;20028;-87
2021/11/01 09:01:26;;;;;;;2.55;0.43;;;;;;;;;;5034662;28;20060;-87
2021/11/01 09:19:55;;;;;;;5.95;1.05;;;;;;;;;;5034303;28;20424;-91
2021/11/01 09:25:02;;;;;;;5.65;0.65;;;;;;;;;;5034780;28;20018;-91
2021/11/01 09:27:29;;;;;;;1.20;0.50;;;;;;;;;;5066862;28;20112;-91
2021/11/01 09:30:09;;;;;;;5.80;1.10;;;;;;;;;;5033649;28;20027;-91
2021/11/01 09:38:15;;;;;;;2.60;0.30;;;;;;;;;;5034625;28;20480;-91
2021/11/01 09:41:07;;;;;;;2.40;0.38;;;;;;;;;;5033990;28;20021;-91
2021/11/01 09:43:32;;;;;;;1.55;0.28;;;;;;;;;;5033582;28;20464;-92
2021/11/01 09:45:59;;;;;;;3.08;0.95;;;;;;;;;;5034700;28;20036;-91
2021/11/01 09:48:24;;;;;;;7.93;1.10;;;;;;;;;;5033108;28;20029;-91
2021/11/01 09:50:51;;;;;;;8.93;1.13;;;;;;;;;;5033476;28;20358;-91
2021/11/01 09:53:21;;;;;;;4.82;0.43;;;;;;;;;;5033490;28;20087;-91
2021/11/01 10:01:13;;;;;;;7.47;1.10;;;;;;;;;;5034591;28;20032;-91
2021/11/01 10:03:40;;;;;;;0.73;0.15;;;;;;;;;;5065758;28;20025;-92
2021/11/01 10:06:06;;;;;;;3.90;0.52;;;;;;;;;;5032850;28;20033;-91
2021/11/01 10:08:32;;;;;;;8.52;1.42;;;;;;;;;;5065832;28;20036;-91
2021/11/01 10:10:58;;;;;;;14.95;1.05;;;;;;;;;;5032254;28;22124;-91
2021/11/01 10:13:25;;;;;;;5.45;0.90;;;;;;;;;;5034241;28;20457;-91
2021/11/01 10:18:47;;;;;;;3.80;0.82;;;;;;;;;;5033981;28;20037;-91
2021/11/01 10:21:15;;;;;;;3.83;0.60;;;;;;;;;;5032745;28;20025;-91
2021/11/01 10:23:45;;;;;;;5.25;0.80;;;;;;;;;;5065613;28;20049;-91
2021/11/01 10:26:15;;;;;;;9.02;0.95;;;;;;;;;;5032382;28;20480;-91
2021/11/01 10:28:40;;;;;;;5.85;0.60;;;;;;;;;;5065685;28;20526;-91
2021/11/01 10:31:11;;;;;;;4.80;0.60;;;;;;;;;;5032201;28;20116;-91
2021/11/01 10:33:43;;;;;;;4.22;0.82;;;;;;;;;;5032750;28;20172;-91
2021/11/01 10:36:09;;;;;;;3.47;1.38;;;;;;;;;;5057944;28;20029;-91
2021/11/01 10:38:37;;;;;;;3.70;0.55;;;;;;;;;;5033146;28;20028;-91
2021/11/01 10:41:13;;;;;;;2.90;0.70;;;;;;;;;;5032275;28;20033;-91
2021/11/01 11:13:38;;;;;;;5.57;1.30;;;;;;;;;;5032954;28;20029;-90
2021/11/01 11:16:04;;;;;;;4.15;0.43;;;;;;;;;;5019939;28;20030;-89
2021/11/01 11:40:35;;;;;;;6.22;0.88;;;;;;;;;;5032090;28;20018;-90
2021/11/01 11:48:23;;;;;;;4.35;0.73;;;;;;;;;;5033898;28;20095;-90
2021/11/01 11:50:50;;;;;;;11.48;1.25;;;;;;;;;;5035184;28;20029;-89
2021/11/01 11:53:19;;;;;;;12.93;2.72;;;;;;;;;;5035020;28;20032;-89
2021/11/01 11:55:46;;;;;;;2.65;0.50;;;;;;;;;;5035828;28;20033;-88
2021/11/01 11:58:13;;;;;;;8.15;1.55;;;;;;;;;;5035543;28;20021;-90
2021/11/01 12:00:39;;;;;;;2.30;0.80;;;;;;;;;;5068073;28;20026;-90
2021/11/01 12:03:09;;;;;;;8.90;1.00;;;;;;;;;;5068836;28;20393;-90
2021/11/01 12:05:39;;;;;;;7.05;0.68;;;;;;;;;;5034721;28;20494;-89
2021/11/01 12:08:18;;;;;;;7.90;1.00;;;;;;;;;;5040095;28;20027;-89
2021/11/01 12:18:46;;;;;;;3.00;0.60;;;;;;;;;;5035004;28;20075;-89
2021/11/01 12:21:11;;;;;;;0.22;0.13;;;;;;;;;;5034609;28;20028;-89
2021/11/01 12:23:37;;;;;;;6.18;0.95;;;;;;;;;;5034529;28;20017;-89
2021/11/01 12:26:10;;;;;;;0.22;0.10;;;;;;;;;;5034255;28;20025;-90
2021/11/01 12:28:36;;;;;;;2.28;0.85;;;;;;;;;;5067739;28;20033;-89
2021/11/01 12:31:01;;;;;;;4.32;1.02;;;;;;;;;;5067843;28;20086;-89
2021/11/01 12:33:29;;;;;;;0.95;0.30;;;;;;;;;;5034022;28;20037;-90
2021/11/01 12:35:59;;;;;;;5.50;0.60;;;;;;;;;;5061164;28;20531;-90
2021/11/01 12:38:37;;;;;;;8.73;1.23;;;;;;;;;;5039237;28;20385;-90
2021/11/01 12:41:12;;;;;;;3.22;0.65;;;;;;;;;;5067155;28;20021;-89
2021/11/01 12:44:18;;;;;;;2.08;0.20;;;;;;;;;;5034017;28;20116;-89
2021/11/01 12:47:35;;;;;;;5.97;0.20;;;;;;;;;;5040299;28;20057;-89
2021/11/01 12:57:45;;;;;;;5.40;0.93;;;;;;;;;;5028646;28;20046;-90
2021/11/01 13:00:11;;;;;;;0.90;0.28;;;;;;;;;;5027047;28;20033;-90
2021/11/01 13:02:40;;;;;;;2.97;0.30;;;;;;;;;;5032345;28;20025;-91
2021/11/01 13:05:12;;;;;;;6.65;0.80;;;;;;;;;;5035012;28;20017;-90
2021/11/01 13:18:14;;;;;;;3.53;0.50;;;;;;;;;;5034949;28;20027;-91
2021/11/01 13:20:46;;;;;;;1.40;0.63;;;;;;;;;;5033713;28;20420;-90
2021/11/01 13:23:12;;;;;;;13.45;0.90;;;;;;;;;;5025545;28;20108;-90
2021/11/01 13:25:50;;;;;;;7.57;0.98;;;;;;;;;;5033800;28;20110;-90
2021/11/01 13:36:48;;;;;;;8.65;0.82;;;;;;;;;;5030158;28;20057;-90
2021/11/01 13:39:23;;;;;;;1.65;0.60;;;;;;;;;;5066196;28;20080;-90
2021/11/01 13:41:48;;;;;;;2.03;0.43;;;;;;;;;;5033655;28;20025;-90
2021/11/01 13:44:15;;;;;;;3.60;0.38;;;;;;;;;;5066261;28;20117;-90
2021/11/01 13:46:44;;;;;;;3.85;0.80;;;;;;;;;;5032817;28;20024;-91
2021/11/01 13:49:10;;;;;;;2.63;0.55;;;;;;;;;;5032817;28;20033;-91
2021/11/01 13:51:35;;;;;;;7.40;0.93;;;;;;;;;;5031935;28;20033;-90
2021/11/01 13:54:17;;;;;;;7.97;0.75;;;;;;;;;;5065715;28;20036;-91
2021/11/01 13:56:45;;;;;;;3.25;0.75;;;;;;;;;;5065920;28;20021;-90
2021/11/01 14:18:38;;;;;;;3.88;0.60;;;;;;;;;;5038995;28;20056;-91
2021/11/01 14:29:56;;;;;;;2.63;0.50;;;;;;;;;;5033031;28;20040;-84
2021/11/01 15:14:43;;;;;;;2.35;0.47;;;;;;;;;;5032537;28;20041;-85
2021/11/01 15:17:31;;;;;;;5.90;0.80;;;;;;;;;;5064329;28;20520;-85
2021/11/01 15:25:08;;;;;;;3.42;1.05;;;;;;;;;;5032293;28;20033;-85
2021/11/01 16:15:17;;;;;;;11.43;1.95;;;;;;;;;;5032647;28;20014;-84
2021/11/01 16:18:36;;;;;;;5.43;0.60;;;;;;;;;;5034530;28;20018;-84
2021/11/01 16:21:02;;;;;;;2.38;0.50;;;;;;;;;;5030897;28;20029;-84
2021/11/01 16:23:37;;;;;;;2.03;0.55;;;;;;;;;;5066375;28;20031;-84
2021/11/01 16:26:10;;;;;;;0.85;0.30;;;;;;;;;;5033156;28;20049;-84
2021/11/01 16:28:36;;;;;;;0.73;0.22;;;;;;;;;;5033642;28;20064;-84
2021/11/01 16:33:37;;;;;;;7.43;0.60;;;;;;;;;;5033397;28;20051;-85
2021/11/01 16:36:08;;;;;;;3.25;0.63;;;;;;;;;;5036238;28;20132;-85
2021/11/01 16:38:42;;;;;;;1.35;0.55;;;;;;;;;;5030941;28;20385;-85
2021/11/01 16:41:08;;;;;;;0.82;0.40;;;;;;;;;;5058137;28;20026;-84
2021/11/01 16:43:34;;;;;;;2.63;0.50;;;;;;;;;;5032263;28;20100;-84
2021/11/01 16:45:59;;;;;;;5.13;0.68;;;;;;;;;;5065147;28;20074;-84
2021/11/01 16:48:24;;;;;;;2.30;0.52;;;;;;;;;;5034793;28;20024;-85
2021/11/01 16:50:52;;;;;;;8.80;0.73;;;;;;;;;;5029923;28;20044;-84
2021/11/01 16:53:17;;;;;;;1.77;0.68;;;;;;;;;;5026772;28;20036;-85
2021/11/01 16:55:47;;;;;;;2.78;0.73;;;;;;;;;;5032812;28;20392;-86
2021/11/01 16:58:43;;;;;;;3.88;1.13;;;;;;;;;;5064976;28;20457;-86
2021/11/01 17:01:04;;;;;;;2.20;0.65;;;;;;;;;;5032421;28;20038;-85
2021/11/01 17:22:24;;;;;;;2.72;1.00;;;;;;;;;;5033995;28;20028;-84
2021/11/01 17:24:59;;;;;;;2.95;0.95;;;;;;;;;;5035264;28;20025;-84
2021/11/01 18:39:30;;;;;;;7.50;1.13;;;;;;;;;;5032798;28;20029;-84
2021/11/01 18:52:10;;;;;;;8.50;2.33;;;;;;;;;;5032514;28;20083;-83
2021/11/01 18:54:42;;;;;;;6.07;1.73;;;;;;;;;;5064469;28;20017;-83
2021/11/01 18:57:08;;;;;;;7.90;2.05;;;;;;;;;;5030810;28;20035;-83
2021/11/01 18:59:35;;;;;;;8.02;2.92;;;;;;;;;;5047411;28;20026;-83
2021/11/01 19:04:44;;;;;;;5.00;1.90;;;;;;;;;;5032136;28;20041;-83
2021/11/01 19:07:33;;;;;;;3.97;1.63;;;;;;;;;;5032214;28;20096;-83
2021/11/01 20:10:55;;;;;;;4.63;2.05;;;;;;;;;;5033051;28;20080;-84
2021/11/01 21:27:12;;;;;;;6.75;1.58;;;;;;;;;;5034017;28;20044;-85
2021/11/01 21:29:37;;;;;;;3.00;1.65;;;;;;;;;;5032863;28;20021;-85
2021/11/01 21:32:04;;;;;;;7.30;1.58;;;;;;;;;;5066062;28;20443;-84
2021/11/01 21:34:44;;;;;;;14.27;1.67;;;;;;;;;;5033642;28;20499;-84
2021/11/01 21:37:10;;;;;;;6.10;1.92;;;;;;;;;;5036231;28;20400;-84
2021/11/01 21:39:36;;;;;;;4.93;1.90;;;;;;;;;;5033262;28;20021;-84
2021/11/01 21:42:02;;;;;;;4.78;1.70;;;;;;;;;;5032584;28;20016;-84
2021/11/01 21:44:29;;;;;;;5.93;2.17;;;;;;;;;;5065566;28;20079;-84
2021/11/01 21:46:54;;;;;;;5.25;1.75;;;;;;;;;;5032400;28;20037;-83
2021/11/01 21:49:19;;;;;;;4.93;1.70;;;;;;;;;;5065773;28;20026;-84
2021/11/01 21:51:45;;;;;;;7.53;2.30;;;;;;;;;;5036476;28;20026;-84
2021/11/01 21:54:23;;;;;;;12.00;2.33;;;;;;;;;;5033434;28;20020;-84
2021/11/01 21:56:53;;;;;;;4.15;1.75;;;;;;;;;;5021108;28;20029;-84
2021/11/01 21:59:47;;;;;;;9.13;2.30;;;;;;;;;;5031400;28;20021;-84
2021/11/01 22:18:16;;;;;;;8.80;2.38;;;;;;;;;;5032915;28;20022;-83
2021/11/01 22:20:46;;;;;;;7.93;2.65;;;;;;;;;;5065356;28;20025;-84
2021/11/01 22:23:15;;;;;;;8.55;2.00;;;;;;;;;;5031995;28;20033;-84
2021/11/01 22:25:58;;;;;;;6.85;2.08;;;;;;;;;;5065560;28;20017;-84
2021/11/01 22:39:19;;;;;;;5.68;1.70;;;;;;;;;;5033394;28;20024;-84
2021/11/01 22:57:40;;;;;;;5.25;1.38;;;;;;;;;;5032762;28;20028;-84
2021/11/01 23:00:15;;;;;;;12.98;1.95;;;;;;;;;;5031476;28;20025;-84
2021/11/01 23:02:41;;;;;;;5.10;1.90;;;;;;;;;;5032119;28;20061;-83
2021/11/01 23:05:27;;;;;;;6.38;1.52;;;;;;;;;;5064523;28;20020;-84
2021/11/01 23:32:53;;;;;;;4.60;1.45;;;;;;;;;;4991140;28;20581;-84
2021/11/01 23:35:19;;;;;;;5.85;1.50;;;;;;;;;;5013234;28;20033;-84
2021/11/01 23:37:44;;;;;;;5.43;1.70;;;;;;;;;;5030880;28;20104;-84
2021/11/01 23:40:09;;;;;;;5.32;1.58;;;;;;;;;;5031885;28;20052;-84
2021/11/01 23:42:35;;;;;;;3.72;1.20;;;;;;;;;;5030980;28;20099;-84
2021/11/01 23:45:00;;;;;;;6.43;1.40;;;;;;;;;;5030709;28;20071;-84
2021/11/01 23:47:25;;;;;;;3.28;1.20;;;;;;;;;;5030508;28;20040;-84
2021/11/01 23:49:50;;;;;;;7.05;1.67;;;;;;;;;;5031187;28;20022;-84
2021/11/01 23:52:17;;;;;;;5.47;1.25;;;;;;;;;;5030609;28;20057;-84
2021/11/01 23:54:45;;;;;;;7.22;1.50;;;;;;;;;;5030730;28;20026;-84
2021/11/01 23:57:19;;;;;;;6.05;1.10;;;;;;;;;;5030842;28;20322;-84
2021/11/01 23:59:45;;;;;;;2.88;1.20;;;;;;;;;;5064305;28;20049;-84
